createdAt,value
2022-12-01T00:01:24.973Z,39.50
2022-12-01T00:03:52.514Z,39.51
2022-12-01T00:06:19.729Z,39.41
2022-12-01T00:08:48.550Z,39.45
2022-12-01T00:11:14.828Z,39.26
2022-12-01T00:13:41.136Z,39.29
2022-12-01T00:16:10.934Z,39.23
2022-12-01T00:18:37.324Z,39.41
2022-12-01T00:21:05.144Z,39.39
2022-12-01T00:23:31.447Z,39.06
2022-12-01T00:26:01.955Z,38.99
2022-12-01T00:28:28.406Z,39.26
2022-12-01T00:30:54.712Z,38.99
2022-12-01T00:33:21.031Z,38.92
2022-12-01T00:35:47.396Z,39.07
2022-12-01T00:38:15.138Z,38.98
2022-12-01T00:40:42.069Z,38.84
2022-12-01T00:43:08.369Z,38.95
2022-12-01T00:45:34.713Z,38.89
2022-12-01T00:48:01.077Z,39.04
2022-12-01T00:50:27.447Z,38.94
2022-12-01T00:52:53.736Z,38.77
2022-12-01T00:55:21.351Z,38.86
2022-12-01T00:57:47.626Z,38.89
2022-12-01T01:00:14.559Z,38.79
2022-12-01T01:02:40.994Z,38.71
2022-12-01T01:05:07.700Z,38.69
2022-12-01T01:07:34.137Z,38.77
2022-12-01T01:10:00.557Z,38.67
2022-12-01T01:12:28.302Z,38.66
2022-12-01T01:14:54.594Z,38.52
2022-12-01T01:17:20.930Z,38.43
2022-12-01T01:19:47.621Z,38.46
2022-12-01T01:22:14.164Z,38.44
2022-12-01T01:24:40.456Z,38.39
2022-12-01T01:27:06.769Z,38.28
2022-12-01T01:29:34.453Z,38.26
2022-12-01T01:32:00.904Z,38.28
2022-12-01T01:34:27.178Z,38.33
2022-12-01T01:36:53.487Z,38.18
2022-12-01T01:39:19.884Z,38.19
2022-12-01T01:41:46.206Z,38.25
2022-12-01T01:44:27.369Z,38.04
2022-12-01T01:46:55.284Z,38.13
2022-12-01T01:49:21.556Z,38.12
2022-12-01T01:51:49.208Z,37.75
2022-12-01T01:54:19.096Z,37.85
2022-12-01T01:56:46.328Z,37.58
2022-12-01T01:59:13.481Z,37.55
2022-12-01T02:01:39.907Z,37.56
2022-12-01T02:04:07.670Z,37.36
2022-12-01T02:06:34.008Z,37.29
2022-12-01T02:09:00.336Z,37.28
2022-12-01T02:11:39.227Z,37.20
2022-12-01T02:14:08.740Z,37.50
2022-12-01T02:16:38.919Z,37.13
2022-12-01T02:19:13.903Z,36.96
2022-12-01T02:21:50.946Z,36.71
2022-12-01T02:27:19.669Z,36.65
2022-12-01T02:29:59.940Z,36.88
2022-12-01T02:32:30.908Z,36.74
2022-12-01T02:34:59.277Z,36.67
2022-12-01T02:37:30.991Z,36.63
2022-12-01T02:40:01.200Z,36.56
2022-12-01T02:42:32.354Z,36.36
2022-12-01T02:45:01.233Z,36.46
2022-12-01T02:47:29.125Z,36.32
2022-12-01T02:49:57.323Z,36.18
2022-12-01T02:52:24.115Z,36.25
2022-12-01T02:54:51.126Z,36.05
2022-12-01T02:57:17.600Z,35.93
2022-12-01T02:59:46.514Z,36.00
2022-12-01T03:02:18.731Z,36.18
2022-12-01T03:04:50.981Z,35.92
2022-12-01T03:07:26.287Z,35.95
2022-12-01T03:10:00.295Z,36.08
2022-12-01T03:12:29.739Z,35.94
2022-12-01T03:15:01.890Z,36.02
2022-12-01T03:17:30.490Z,35.99
2022-12-01T03:20:02.738Z,35.85
2022-12-01T03:22:33.347Z,36.00
2022-12-01T03:25:00.188Z,35.77
2022-12-01T03:27:28.407Z,35.58
2022-12-01T03:29:56.432Z,35.72
2022-12-01T03:32:25.635Z,35.67
2022-12-01T03:34:54.674Z,35.61
2022-12-01T03:37:24.711Z,35.84
2022-12-01T03:39:58.761Z,35.79
2022-12-01T03:42:28.720Z,35.66
2022-12-01T03:44:56.587Z,35.81
2022-12-01T03:47:24.706Z,35.84
2022-12-01T03:49:52.914Z,35.72
2022-12-01T03:52:24.532Z,35.57
2022-12-01T03:55:00.094Z,35.56
2022-12-01T03:57:29.672Z,35.62
2022-12-01T03:59:56.382Z,35.62
2022-12-01T04:02:22.745Z,35.64
2022-12-01T04:04:49.026Z,35.54
2022-12-01T04:07:15.331Z,35.63
2022-12-01T04:09:41.646Z,35.78
2022-12-01T04:12:11.723Z,35.47
2022-12-01T04:14:38.065Z,35.70
2022-12-01T04:17:04.382Z,35.55
2022-12-01T04:19:30.681Z,35.65
2022-12-01T04:21:56.984Z,35.51
2022-12-01T04:24:23.328Z,35.44
2022-12-01T04:26:49.634Z,35.66
2022-12-01T04:29:17.297Z,35.53
2022-12-01T04:31:43.804Z,35.53
2022-12-01T04:34:10.624Z,35.58
2022-12-01T04:36:36.920Z,35.60
2022-12-01T04:39:03.746Z,35.64
2022-12-01T04:41:30.005Z,35.76
2022-12-01T04:43:56.506Z,35.86
2022-12-01T04:46:24.635Z,35.51
2022-12-01T04:48:51.328Z,35.70
2022-12-01T04:51:17.661Z,35.57
2022-12-01T04:53:44.278Z,35.42
2022-12-01T04:56:10.577Z,35.48
2022-12-01T04:58:37.076Z,35.72
2022-12-01T05:01:04.299Z,35.35
2022-12-01T05:03:32.068Z,35.40
2022-12-01T05:06:01.065Z,35.37
2022-12-01T05:08:27.344Z,35.59
2022-12-01T05:10:54.709Z,35.56
2022-12-01T05:13:21.006Z,35.35
2022-12-01T05:15:47.711Z,35.49
2022-12-01T05:18:14.147Z,35.21
2022-12-01T05:20:41.741Z,35.34
2022-12-01T05:23:10.785Z,35.46
2022-12-01T05:25:39.923Z,35.41
2022-12-01T05:28:06.220Z,35.29
2022-12-01T05:30:32.579Z,35.19
2022-12-01T05:32:58.909Z,35.36
2022-12-01T05:35:25.332Z,35.06
2022-12-01T05:37:52.869Z,35.10
2022-12-01T05:40:19.209Z,35.12
2022-12-01T05:42:45.503Z,36.68
2022-12-01T05:45:11.823Z,39.54
2022-12-01T05:47:38.358Z,41.23
2022-12-01T05:50:05.924Z,42.31
2022-12-01T05:52:33.376Z,39.03
2022-12-01T05:55:01.032Z,38.69
2022-12-01T05:57:27.344Z,38.69
2022-12-01T05:59:53.608Z,38.33
2022-12-01T06:02:19.885Z,37.68
2022-12-01T06:04:46.204Z,37.06
2022-12-01T06:07:12.625Z,36.61
2022-12-01T06:09:38.922Z,36.27
2022-12-01T06:12:06.629Z,36.22
2022-12-01T06:14:32.986Z,35.71
2022-12-01T06:16:59.365Z,35.21
2022-12-01T06:19:25.827Z,35.77
2022-12-01T06:21:52.112Z,38.02
2022-12-01T06:24:18.416Z,40.50
2022-12-01T06:26:44.878Z,38.91
2022-12-01T06:29:12.469Z,38.71
2022-12-01T06:31:38.882Z,39.40
2022-12-01T06:34:05.234Z,38.75
2022-12-01T06:36:31.579Z,38.27
2022-12-01T06:38:58.027Z,37.67
2022-12-01T06:41:24.324Z,37.66
2022-12-01T06:43:50.609Z,37.46
2022-12-01T06:46:18.674Z,37.26
2022-12-01T06:48:47.456Z,37.16
2022-12-01T06:51:13.892Z,37.09
2022-12-01T06:53:40.191Z,36.78
2022-12-01T06:56:06.759Z,36.81
2022-12-01T06:58:33.308Z,36.59
2022-12-01T07:01:00.265Z,36.73
2022-12-01T07:03:27.922Z,36.66
2022-12-01T07:05:55.133Z,36.64
2022-12-01T07:08:21.468Z,36.81
2022-12-01T07:10:56.434Z,36.48
2022-12-01T07:13:22.765Z,36.54
2022-12-01T07:15:49.067Z,36.70
2022-12-01T07:18:15.441Z,36.40
2022-12-01T07:20:43.058Z,36.51
2022-12-01T07:23:09.520Z,36.61
2022-12-01T07:25:35.785Z,36.38
2022-12-01T07:28:02.071Z,36.26
2022-12-01T07:30:28.777Z,36.35
2022-12-01T07:32:55.399Z,36.38
2022-12-01T07:35:22.369Z,36.18
2022-12-01T07:37:53.577Z,36.24
2022-12-01T07:40:19.938Z,36.20
2022-12-01T07:42:46.723Z,36.09
2022-12-01T07:45:13.096Z,36.08
2022-12-01T07:47:39.486Z,35.89
2022-12-01T07:50:06.266Z,35.97
2022-12-01T07:52:32.588Z,36.02
2022-12-01T07:55:00.490Z,36.04
2022-12-01T07:57:26.814Z,36.00
2022-12-01T07:59:53.151Z,35.98
2022-12-01T08:02:19.624Z,36.17
2022-12-01T08:04:46.105Z,36.08
2022-12-01T08:07:12.434Z,35.78
2022-12-01T08:09:38.760Z,35.95
2022-12-01T08:12:06.586Z,35.57
2022-12-01T08:14:32.977Z,35.73
2022-12-01T08:16:59.256Z,35.71
2022-12-01T08:19:25.573Z,36.01
2022-12-01T08:21:51.878Z,35.73
2022-12-01T08:24:18.201Z,36.02
2022-12-01T08:26:44.653Z,36.23
2022-12-01T08:29:17.026Z,36.28
2022-12-01T08:31:46.125Z,36.27
2022-12-01T08:34:12.461Z,36.18
2022-12-01T08:36:38.836Z,36.23
2022-12-01T08:39:06.967Z,36.31
2022-12-01T08:41:33.240Z,36.28
2022-12-01T08:44:00.377Z,36.34
2022-12-01T08:46:31.533Z,36.29
2022-12-01T08:48:58.304Z,36.39
2022-12-01T08:51:25.284Z,36.28
2022-12-01T08:53:51.639Z,36.30
2022-12-01T08:56:18.808Z,36.23
2022-12-01T08:58:45.347Z,36.25
2022-12-01T09:01:12.821Z,36.43
2022-12-01T09:03:40.909Z,36.01
2022-12-01T09:06:08.392Z,35.40
2022-12-01T09:08:35.353Z,35.56
2022-12-01T09:11:03.350Z,35.36
2022-12-01T09:13:30.153Z,35.20
2022-12-01T09:15:57.556Z,35.61
2022-12-01T09:18:24.438Z,35.74
2022-12-01T09:20:52.103Z,36.08
2022-12-01T09:23:18.786Z,36.47
2022-12-01T09:25:45.190Z,36.63
2022-12-01T09:28:11.572Z,36.57
2022-12-01T09:30:38.088Z,37.04
2022-12-01T09:33:04.424Z,37.53
2022-12-01T09:35:31.447Z,38.68
2022-12-01T09:37:59.218Z,40.19
2022-12-01T09:40:31.309Z,38.96
2022-12-01T09:42:58.348Z,38.32
2022-12-01T09:45:25.714Z,37.55
2022-12-01T09:47:59.341Z,37.23
2022-12-01T09:50:26.815Z,37.09
2022-12-01T09:52:56.915Z,37.11
2022-12-01T09:55:25.079Z,36.83
2022-12-01T09:57:52.754Z,36.71
2022-12-01T10:00:20.394Z,36.58
2022-12-01T10:02:49.518Z,36.55
2022-12-01T10:05:18.416Z,36.58
2022-12-01T10:07:48.077Z,36.48
2022-12-01T10:10:16.574Z,36.54
2022-12-01T10:12:46.581Z,36.42
2022-12-01T10:15:15.674Z,36.59
2022-12-01T10:17:46.265Z,36.49
2022-12-01T10:20:16.293Z,36.24
2022-12-01T10:22:48.973Z,36.35
2022-12-01T10:25:20.016Z,36.40
2022-12-01T10:27:51.967Z,36.28
2022-12-01T10:30:20.019Z,36.59
2022-12-01T10:32:51.296Z,36.44
2022-12-01T10:35:18.716Z,36.34
2022-12-01T10:37:45.829Z,36.52
2022-12-01T10:40:12.529Z,36.31
2022-12-01T10:42:41.040Z,36.31
2022-12-01T10:45:13.720Z,36.30
2022-12-01T10:48:00.014Z,36.24
2022-12-01T10:50:27.080Z,36.33
2022-12-01T10:52:53.441Z,36.18
2022-12-01T10:55:25.132Z,36.24
2022-12-01T10:57:52.676Z,36.17
2022-12-01T11:00:57.509Z,36.25
2022-12-01T11:03:21.574Z,36.27
2022-12-01T11:05:51.037Z,36.19
2022-12-01T11:08:21.674Z,36.14
2022-12-01T11:10:48.883Z,36.17
2022-12-01T11:13:20.639Z,36.14
2022-12-01T11:15:51.696Z,36.19
2022-12-01T11:18:21.130Z,36.43
2022-12-01T11:20:47.699Z,36.25
2022-12-01T11:23:23.030Z,36.26
2022-12-01T11:25:56.335Z,36.33
2022-12-01T11:28:22.794Z,36.44
2022-12-01T11:30:56.784Z,36.20
2022-12-01T11:33:26.867Z,36.29
2022-12-01T11:35:53.529Z,36.17
2022-12-01T11:38:29.653Z,36.09
2022-12-01T11:40:57.442Z,36.08
2022-12-01T11:43:27.241Z,36.03
2022-12-01T11:45:54.419Z,36.15
2022-12-01T11:48:25.392Z,36.16
2022-12-01T11:51:01.579Z,36.37
2022-12-01T11:53:28.902Z,36.13
2022-12-01T11:56:13.091Z,36.31
2022-12-01T11:58:39.598Z,36.19
2022-12-01T12:01:16.350Z,36.19
2022-12-01T12:03:53.398Z,36.05
2022-12-01T12:09:19.141Z,36.12
2022-12-01T12:11:49.862Z,36.11
2022-12-01T12:14:25.118Z,35.96
2022-12-01T12:17:10.030Z,36.03
2022-12-01T12:20:07.088Z,36.06
2022-12-01T12:22:38.548Z,35.96
2022-12-01T12:25:20.009Z,36.06
2022-12-01T12:27:50.678Z,36.13
2022-12-01T12:30:20.791Z,35.86
2022-12-01T12:32:57.277Z,35.88
2022-12-01T12:35:30.750Z,35.94
2022-12-01T12:38:03.553Z,36.00
2022-12-01T12:40:36.310Z,35.88
2022-12-01T12:43:08.175Z,35.91
2022-12-01T12:45:41.584Z,35.91
2022-12-01T12:48:14.787Z,35.82
2022-12-01T12:50:45.088Z,35.76
2022-12-01T12:53:15.602Z,35.72
2022-12-01T12:55:44.365Z,35.73
2022-12-01T12:58:13.560Z,35.76
2022-12-01T13:00:43.746Z,35.79
2022-12-01T13:03:15.960Z,35.82
2022-12-01T13:05:46.524Z,35.93
2022-12-01T13:08:16.022Z,35.86
2022-12-01T13:10:46.306Z,35.73
2022-12-01T13:13:24.514Z,35.67
2022-12-01T13:15:52.527Z,35.75
2022-12-01T13:18:28.902Z,35.94
2022-12-01T13:20:57.605Z,35.80
2022-12-01T13:23:24.445Z,35.80
2022-12-01T13:25:52.635Z,35.76
2022-12-01T13:28:20.788Z,35.73
2022-12-01T13:30:57.026Z,35.79
2022-12-01T13:33:23.331Z,35.62
2022-12-01T13:36:22.594Z,35.75
2022-12-01T13:38:45.347Z,35.55
2022-12-01T13:41:13.449Z,35.67
2022-12-01T13:43:49.202Z,35.75
2022-12-01T13:46:20.580Z,35.61
2022-12-01T13:48:50.933Z,35.99
2022-12-01T13:51:17.614Z,35.78
2022-12-01T13:53:55.916Z,35.86
2022-12-01T13:56:39.381Z,36.05
2022-12-01T13:59:22.073Z,35.97
2022-12-01T14:01:48.506Z,36.04
2022-12-01T14:04:22.468Z,36.15
2022-12-01T14:06:49.844Z,36.05
2022-12-01T14:09:20.651Z,36.07
2022-12-01T14:11:55.933Z,36.10
2022-12-01T14:14:26.239Z,36.61
2022-12-01T14:16:53.813Z,36.39
2022-12-01T14:19:27.947Z,36.53
2022-12-01T14:21:54.383Z,36.53
2022-12-01T14:24:26.531Z,36.64
2022-12-01T14:26:53.661Z,36.63
2022-12-01T14:29:24.820Z,36.53
2022-12-01T14:32:01.053Z,36.68
2022-12-01T14:34:29.928Z,36.50
2022-12-01T14:36:57.626Z,36.61
2022-12-01T14:39:27.100Z,36.48
2022-12-01T14:41:56.176Z,36.61
2022-12-01T14:44:25.443Z,36.77
2022-12-01T14:46:54.549Z,36.59
2022-12-01T14:49:23.537Z,36.61
2022-12-01T14:51:52.891Z,36.52
2022-12-01T14:54:23.466Z,36.51
2022-12-01T14:56:52.462Z,36.44
2022-12-01T14:59:20.351Z,36.46
2022-12-01T15:01:48.852Z,36.48
2022-12-01T15:04:15.411Z,36.48
2022-12-01T15:06:41.932Z,36.49
2022-12-01T15:09:32.656Z,36.49
2022-12-01T15:11:59.651Z,36.51
2022-12-01T15:14:31.061Z,36.45
2022-12-01T15:16:57.812Z,36.62
2022-12-01T15:19:33.506Z,36.47
2022-12-01T15:22:02.858Z,36.39
2022-12-01T15:24:29.268Z,36.27
2022-12-01T15:27:02.251Z,36.33
2022-12-01T15:29:33.027Z,36.19
2022-12-01T15:32:00.407Z,36.45
2022-12-01T15:34:29.469Z,36.45
2022-12-01T15:36:55.794Z,36.24
2022-12-01T15:39:26.023Z,36.06
2022-12-01T15:41:53.315Z,36.20
2022-12-01T15:44:21.768Z,35.94
2022-12-01T15:46:49.527Z,35.85
2022-12-01T15:49:18.212Z,35.79
2022-12-01T15:51:45.004Z,35.91
2022-12-01T15:54:17.492Z,35.65
2022-12-01T15:56:44.356Z,35.78
2022-12-01T15:59:19.495Z,35.62
2022-12-01T16:01:45.938Z,35.51
2022-12-01T16:04:18.573Z,35.67
2022-12-01T16:06:52.270Z,35.56
2022-12-01T16:09:20.873Z,35.48
2022-12-01T16:12:02.162Z,35.46
2022-12-01T16:14:28.676Z,35.40
2022-12-01T16:16:55.288Z,35.44
2022-12-01T16:19:25.614Z,35.34
2022-12-01T16:21:53.060Z,35.36
2022-12-01T16:24:20.821Z,35.23
2022-12-01T16:26:48.816Z,35.24
2022-12-01T16:29:18.366Z,35.36
2022-12-01T16:32:12.724Z,35.48
2022-12-01T16:34:45.971Z,35.45
2022-12-01T16:37:20.769Z,35.34
2022-12-01T16:39:47.550Z,35.31
2022-12-01T16:42:14.840Z,35.26
2022-12-01T16:44:41.440Z,35.13
2022-12-01T16:47:11.964Z,35.31
2022-12-01T16:49:39.693Z,35.31
2022-12-01T16:52:42.585Z,35.29
2022-12-01T16:54:52.610Z,35.28
2022-12-01T16:57:19.033Z,35.50
2022-12-01T16:59:45.434Z,35.26
2022-12-01T17:02:11.954Z,35.37
2022-12-01T17:04:39.941Z,35.03
2022-12-01T17:07:06.354Z,34.73
2022-12-01T17:09:32.773Z,35.02
2022-12-01T17:11:59.813Z,34.87
2022-12-01T17:14:26.260Z,34.58
2022-12-01T17:16:52.574Z,34.12
2022-12-01T17:19:19.121Z,34.03
2022-12-01T17:21:46.799Z,34.01
2022-12-01T17:24:18.720Z,33.92
2022-12-01T17:26:45.592Z,34.09
2022-12-01T17:29:12.010Z,34.07
2022-12-01T17:31:38.557Z,34.01
2022-12-01T17:34:05.054Z,34.20
2022-12-01T17:36:31.562Z,34.51
2022-12-01T17:38:59.244Z,34.57
2022-12-01T17:41:25.640Z,34.52
2022-12-01T17:43:52.042Z,34.67
2022-12-01T17:46:18.864Z,34.61
2022-12-01T17:48:46.381Z,34.53
2022-12-01T17:51:13.707Z,34.55
2022-12-01T17:53:40.305Z,34.73
2022-12-01T17:56:08.726Z,34.77
2022-12-01T17:58:35.227Z,34.69
2022-12-01T18:01:01.643Z,34.71
2022-12-01T18:03:27.971Z,34.82
2022-12-01T18:05:54.871Z,34.81
2022-12-01T18:08:21.407Z,34.83
2022-12-01T18:10:47.859Z,34.82
2022-12-01T18:13:15.403Z,34.95
2022-12-01T18:15:41.810Z,34.92
2022-12-01T18:18:08.314Z,34.82
2022-12-01T18:20:34.624Z,34.95
2022-12-01T18:23:00.926Z,35.12
2022-12-01T18:25:27.249Z,34.92
2022-12-01T18:27:53.568Z,35.03
2022-12-01T18:30:21.198Z,35.14
2022-12-01T18:32:47.631Z,35.23
2022-12-01T18:35:14.232Z,35.12
2022-12-01T18:37:40.604Z,35.13
2022-12-01T18:40:08.247Z,35.10
2022-12-01T18:42:34.681Z,35.11
2022-12-01T18:45:01.016Z,35.08
2022-12-01T18:47:29.290Z,35.07
2022-12-01T18:49:55.764Z,35.00
2022-12-01T18:52:22.047Z,35.01
2022-12-01T18:54:48.502Z,35.10
2022-12-01T18:57:15.089Z,35.20
2022-12-01T18:59:41.407Z,35.19
2022-12-01T19:02:09.374Z,35.20
2022-12-01T19:04:37.012Z,35.18
2022-12-01T19:07:03.280Z,35.16
2022-12-01T19:09:29.590Z,35.11
2022-12-01T19:11:56.028Z,35.22
2022-12-01T19:14:22.379Z,35.22
2022-12-01T19:16:48.716Z,35.04
2022-12-01T19:19:15.103Z,35.13
2022-12-01T19:21:42.959Z,34.85
2022-12-01T19:24:09.367Z,35.14
2022-12-01T19:26:35.755Z,35.11
2022-12-01T19:29:02.283Z,35.07
2022-12-01T19:31:28.693Z,35.09
2022-12-01T19:33:55.108Z,35.00
2022-12-01T19:36:22.996Z,34.84
2022-12-01T19:38:50.718Z,34.89
2022-12-01T19:41:17.607Z,35.05
2022-12-01T19:43:44.011Z,34.96
2022-12-01T19:46:11.592Z,35.12
2022-12-01T19:48:38.242Z,35.08
2022-12-01T19:51:04.883Z,35.08
2022-12-01T19:53:34.071Z,34.97
2022-12-01T19:56:02.566Z,35.04
2022-12-01T19:58:28.891Z,35.08
2022-12-01T20:00:55.323Z,34.95
2022-12-01T20:03:21.711Z,35.04
2022-12-01T20:05:48.004Z,34.96
2022-12-01T20:08:14.288Z,34.97
2022-12-01T20:10:45.514Z,35.10
2022-12-01T20:13:13.154Z,35.09
2022-12-01T20:15:39.575Z,34.99
2022-12-01T20:18:05.866Z,35.12
2022-12-01T20:20:32.212Z,34.96
2022-12-01T20:22:58.534Z,35.06
2022-12-01T20:25:24.977Z,35.00
2022-12-01T20:27:51.340Z,35.14
2022-12-01T20:30:19.080Z,35.01
2022-12-01T20:32:45.449Z,35.09
2022-12-01T20:35:11.878Z,35.11
2022-12-01T20:37:38.198Z,35.09
2022-12-01T20:40:04.898Z,34.94
2022-12-01T20:42:31.237Z,34.99
2022-12-01T20:44:58.045Z,34.99
2022-12-01T20:47:25.771Z,35.02
2022-12-01T20:49:56.951Z,35.05
2022-12-01T20:52:24.743Z,34.87
2022-12-01T20:54:51.346Z,35.02
2022-12-01T20:57:17.923Z,34.86
2022-12-01T20:59:44.225Z,34.89
2022-12-01T21:02:10.601Z,34.88
2022-12-01T21:04:38.213Z,34.76
2022-12-01T21:07:04.503Z,34.76
2022-12-01T21:09:30.958Z,34.85
2022-12-01T21:11:58.706Z,34.99
2022-12-01T21:14:27.736Z,34.77
2022-12-01T21:16:56.239Z,34.71
2022-12-01T21:19:26.127Z,34.73
2022-12-01T21:21:53.731Z,34.77
2022-12-01T21:24:21.032Z,34.82
2022-12-01T21:26:49.242Z,34.69
2022-12-01T21:29:18.726Z,34.68
2022-12-01T21:31:45.101Z,34.58
2022-12-01T21:34:13.825Z,34.82
2022-12-01T21:36:40.105Z,34.66
2022-12-01T21:39:12.547Z,34.60
2022-12-01T21:41:38.858Z,34.55
2022-12-01T21:44:11.215Z,34.54
2022-12-01T21:46:37.567Z,34.58
2022-12-01T21:49:08.791Z,34.64
2022-12-01T21:51:35.245Z,34.45
2022-12-01T21:54:01.546Z,34.45
2022-12-01T21:56:29.418Z,34.58
2022-12-01T21:58:57.486Z,34.59
2022-12-01T22:01:26.867Z,34.62
2022-12-01T22:03:59.084Z,34.53
2022-12-01T22:06:31.636Z,34.63
2022-12-01T22:08:59.597Z,34.50
2022-12-01T22:11:26.913Z,34.55
2022-12-01T22:13:55.149Z,34.42
2022-12-01T22:16:22.246Z,34.34
2022-12-01T22:18:50.595Z,34.54
2022-12-01T22:21:31.761Z,34.63
2022-12-01T22:24:01.730Z,34.55
2022-12-01T22:26:28.006Z,34.40
2022-12-01T22:28:58.284Z,34.49
2022-12-01T22:31:25.003Z,34.44
2022-12-01T22:33:57.657Z,34.44
2022-12-01T22:36:28.766Z,34.44
2022-12-01T22:38:55.665Z,34.56
2022-12-01T22:41:22.829Z,34.43
2022-12-01T22:43:50.391Z,34.51
2022-12-01T22:46:27.025Z,34.40
2022-12-01T22:48:54.474Z,34.43
2022-12-01T22:51:24.059Z,34.31
2022-12-01T22:53:53.109Z,34.35
2022-12-01T22:56:26.476Z,34.30
2022-12-01T22:58:53.047Z,34.32
2022-12-01T23:01:21.752Z,34.39
2022-12-01T23:03:49.500Z,34.24
2022-12-01T23:06:30.773Z,34.48
2022-12-01T23:08:57.114Z,34.44
2022-12-01T23:11:23.403Z,34.23
2022-12-01T23:13:49.727Z,34.42
2022-12-01T23:16:16.109Z,34.32
2022-12-01T23:18:42.478Z,34.34
2022-12-01T23:21:10.148Z,34.27
2022-12-01T23:23:37.136Z,34.31
2022-12-01T23:26:04.101Z,34.20
2022-12-01T23:28:30.846Z,34.20
2022-12-01T23:30:58.093Z,34.30
2022-12-01T23:33:25.849Z,34.18
2022-12-01T23:35:55.466Z,34.27
2022-12-01T23:38:24.451Z,34.22
2022-12-01T23:40:51.789Z,34.30
2022-12-01T23:43:19.522Z,34.41
2022-12-01T23:45:46.251Z,34.15
2022-12-01T23:48:17.082Z,34.11
2022-12-01T23:50:43.376Z,34.08
2022-12-01T23:53:18.446Z,34.01
2022-12-01T23:55:46.050Z,34.13
2022-12-01T23:58:13.436Z,34.00
